INFORMAÇÕES DO AERODROMO
Icao Aerodromo ENTC Nome do Aerodromo Tromsø Airport Cidade Tromsø
Código GPS ENTC Elevação Média 31 ft Tipo de Aerodromo Aeroporto Grande Porte

INFORMAÇÃO DE PISTA
Pista 01 Comprimento da Pista 7848 ft Largura da Pista 148 ft
Elevação da Pista 25 ft Distância de Area de Escape da Pista 0 ft Orientação da Pista 13
Pista 19 Comprimento da Pista 7848 ft Largura da Pista 148 ft
Elevação da Pista 13 ft Distância de Area de Escape da Pista 1286 ft Orientação da Pista 193

FREQUÊNCIAS DO AERODROMO
Tipo APP Nome APP Frequência 123.75 MHZ
Tipo ATIS Nome ATIS Frequência 126.125 MHZ
Tipo TWR Nome TWR Frequência 118.3 MHZ

INFORMAÇÕES DE NAVEGAÇÃO PRÓXIMO AO AERODROMO
Tipo NDB Nome Kobbe Frequência 283 KHZ
Tipo NDB Nome Kvalsund Frequência 362 KHZ
Tipo NDB Nome Lanes Frequência 268 KHZ
Tipo VOR-DME Nome Tromso Frequência 113800 KHZ

Informações de Meteorologia(METAR atual)
METAR DE ENTC
ADDS - METARS form results

(2348 UTC 18 March 2019)
Data provider http://aviationweather.gov/metar/data/
 
METAR text: ENTC 182320Z 16001KT CAVOK M08/M10 Q1009 RMK WIND 2600FT 26006KT
Conditions at: ENTC (TROMSO/LANGNES , NO) observed 2320 UTC 18 March 2019
Temperature: -8.0°C (18°F)
Dewpoint: -10.0°C (14°F) [RH = 85%]
Pressure (altimeter): 29.79 inches Hg (1009.0 mb)
Winds: from the SSE (160 degrees) at 1 MPH (1 knots; 0.5 m/s)
Visibility: 6 or more miles (10+ km)
Ceiling: ceiling and visibility are OK
Clouds: unknown
Weather: no significant weather observed at this time

METAR text: ENTC 182250Z VRB02KT CAVOK M08/M09 Q1009 RMK WIND 2600FT 26005KT
Conditions at: ENTC (TROMSO/LANGNES , NO) observed 2250 UTC 18 March 2019
Temperature: -8.0°C (18°F)
Dewpoint: -9.0°C (16°F) [RH = 92%]
Pressure (altimeter): 29.79 inches Hg (1009.0 mb)
Winds: variable direction winds at 2 MPH (2 knots; 1.0 m/s)
Visibility: 6 or more miles (10+ km)
Ceiling: ceiling and visibility are OK
Clouds: unknown
Weather: no significant weather observed at this time

Forecast for: ENTC (TROMSO/LANGNES , NO)
Text: TAF ENTC 1818/1918 20008KT 9999 FEW020
Forecast period: 1800 UTC 18 March 2019 to 1800 UTC 19 March 2019
Forecast type: FROM: standard forecast or significant change
Winds: from the SSW (200 degrees) at 9 MPH (8 knots; 4.1 m/s)
Visibility: 6 or more miles 10+ km)
Ceiling: at least 12,000 feet AGL
Clouds: few clouds at 2000 feet AGL
Weather: no significant weather forecast for this period

MAPA DO AERODROMO


Desenvolvido por Virtual Airlines Manager




Modificado por Servidor Brasil Amigos